sensor_id;sensor_type;location;lat;lon;timestamp;temperature;humidity
44851;DHT22;30583;48.714;9.386;2023-03-01T00:01:23;2.30;60.30
44851;DHT22;30583;48.714;9.386;2023-03-01T00:03:49;2.30;60.40
44851;DHT22;30583;48.714;9.386;2023-03-01T00:06:15;2.20;60.70
44851;DHT22;30583;48.714;9.386;2023-03-01T00:08:41;2.30;60.70
44851;DHT22;30583;48.714;9.386;2023-03-01T00:13:44;2.10;61.70
44851;DHT22;30583;48.714;9.386;2023-03-01T00:16:12;1.80;62.90
44851;DHT22;30583;48.714;9.386;2023-03-01T00:18:38;1.70;63.70
44851;DHT22;30583;48.714;9.386;2023-03-01T00:21:04;1.90;63.70
44851;DHT22;30583;48.714;9.386;2023-03-01T00:23:31;1.80;63.80
44851;DHT22;30583;48.714;9.386;2023-03-01T00:25:56;1.90;63.50
44851;DHT22;30583;48.714;9.386;2023-03-01T00:28:22;1.70;64.00
44851;DHT22;30583;48.714;9.386;2023-03-01T00:30:48;1.90;63.60
44851;DHT22;30583;48.714;9.386;2023-03-01T00:33:13;2.00;63.50
44851;DHT22;30583;48.714;9.386;2023-03-01T00:35:39;1.80;64.20
44851;DHT22;30583;48.714;9.386;2023-03-01T00:38:05;1.60;64.50
44851;DHT22;30583;48.714;9.386;2023-03-01T00:40:33;1.70;64.30
44851;DHT22;30583;48.714;9.386;2023-03-01T00:42:59;1.50;64.70
44851;DHT22;30583;48.714;9.386;2023-03-01T00:45:25;1.40;64.90
44851;DHT22;30583;48.714;9.386;2023-03-01T00:47:51;1.50;65.10
44851;DHT22;30583;48.714;9.386;2023-03-01T00:50:17;1.60;64.90
44851;DHT22;30583;48.714;9.386;2023-03-01T00:52:43;1.40;65.50
44851;DHT22;30583;48.714;9.386;2023-03-01T00:55:09;1.40;65.30
44851;DHT22;30583;48.714;9.386;2023-03-01T00:57:35;1.30;65.80
44851;DHT22;30583;48.714;9.386;2023-03-01T01:00:00;1.20;65.60
44851;DHT22;30583;48.714;9.386;2023-03-01T01:02:26;1.50;65.10
44851;DHT22;30583;48.714;9.386;2023-03-01T01:04:52;1.50;64.60
44851;DHT22;30583;48.714;9.386;2023-03-01T01:07:18;1.50;64.30
44851;DHT22;30583;48.714;9.386;2023-03-01T01:09:45;1.40;64.70
44851;DHT22;30583;48.714;9.386;2023-03-01T01:12:11;1.50;64.40
44851;DHT22;30583;48.714;9.386;2023-03-01T01:14:36;1.60;64.00
44851;DHT22;30583;48.714;9.386;2023-03-01T01:17:02;1.60;63.60
44851;DHT22;30583;48.714;9.386;2023-03-01T01:19:28;1.30;64.50
44851;DHT22;30583;48.714;9.386;2023-03-01T01:21:54;1.50;64.40
44851;DHT22;30583;48.714;9.386;2023-03-01T01:24:19;1.60;64.00
44851;DHT22;30583;48.714;9.386;2023-03-01T01:26:45;1.30;64.70
44851;DHT22;30583;48.714;9.386;2023-03-01T01:29:11;1.50;64.40
44851;DHT22;30583;48.714;9.386;2023-03-01T01:31:38;1.40;64.40
44851;DHT22;30583;48.714;9.386;2023-03-01T01:34:06;1.00;65.30
44851;DHT22;30583;48.714;9.386;2023-03-01T01:36:32;1.20;65.00
44851;DHT22;30583;48.714;9.386;2023-03-01T01:38:58;1.50;64.50
44851;DHT22;30583;48.714;9.386;2023-03-01T01:41:25;1.70;63.90
44851;DHT22;30583;48.714;9.386;2023-03-01T01:49:33;1.70;64.30
44851;DHT22;30583;48.714;9.386;2023-03-01T01:55:03;1.90;63.50
44851;DHT22;30583;48.714;9.386;2023-03-01T01:57:36;1.90;63.50
44851;DHT22;30583;48.714;9.386;2023-03-01T02:00:08;1.80;63.50
44851;DHT22;30583;48.714;9.386;2023-03-01T02:02:36;1.90;63.10
44851;DHT22;30583;48.714;9.386;2023-03-01T02:05:16;1.70;64.20
44851;DHT22;30583;48.714;9.386;2023-03-01T02:07:42;1.80;63.30
44851;DHT22;30583;48.714;9.386;2023-03-01T02:10:09;1.80;63.80
44851;DHT22;30583;48.714;9.386;2023-03-01T02:12:36;1.70;64.00
44851;DHT22;30583;48.714;9.386;2023-03-01T02:15:03;1.70;64.60
44851;DHT22;30583;48.714;9.386;2023-03-01T02:17:29;2.00;63.70
44851;DHT22;30583;48.714;9.386;2023-03-01T02:20:07;2.20;63.10
44851;DHT22;30583;48.714;9.386;2023-03-01T02:22:37;2.10;63.30
44851;DHT22;30583;48.714;9.386;2023-03-01T02:30:32;2.00;62.70
44851;DHT22;30583;48.714;9.386;2023-03-01T02:33:00;2.20;62.20
44851;DHT22;30583;48.714;9.386;2023-03-01T02:35:29;2.20;62.10
44851;DHT22;30583;48.714;9.386;2023-03-01T02:37:56;2.20;62.40
44851;DHT22;30583;48.714;9.386;2023-03-01T02:40:22;2.20;62.30
44851;DHT22;30583;48.714;9.386;2023-03-01T02:42:56;2.30;62.20
44851;DHT22;30583;48.714;9.386;2023-03-01T02:45:23;2.30;62.20
44851;DHT22;30583;48.714;9.386;2023-03-01T02:47:49;2.50;62.10
44851;DHT22;30583;48.714;9.386;2023-03-01T02:50:51;2.40;62.10
44851;DHT22;30583;48.714;9.386;2023-03-01T02:53:45;2.50;61.60
44851;DHT22;30583;48.714;9.386;2023-03-01T02:56:14;2.40;61.90
44851;DHT22;30583;48.714;9.386;2023-03-01T02:58:41;2.50;62.00
44851;DHT22;30583;48.714;9.386;2023-03-01T03:01:14;2.40;61.90
44851;DHT22;30583;48.714;9.386;2023-03-01T03:03:41;2.30;62.40
44851;DHT22;30583;48.714;9.386;2023-03-01T03:06:07;2.40;62.30
44851;DHT22;30583;48.714;9.386;2023-03-01T03:08:32;2.40;61.90
44851;DHT22;30583;48.714;9.386;2023-03-01T03:10:58;2.50;62.10
44851;DHT22;30583;48.714;9.386;2023-03-01T03:13:23;2.40;61.70
44851;DHT22;30583;48.714;9.386;2023-03-01T03:15:54;2.60;61.70
44851;DHT22;30583;48.714;9.386;2023-03-01T03:18:21;2.60;62.20
44851;DHT22;30583;48.714;9.386;2023-03-01T03:20:47;2.60;62.10
44851;DHT22;30583;48.714;9.386;2023-03-01T03:23:13;2.50;62.00
44851;DHT22;30583;48.714;9.386;2023-03-01T03:25:39;2.30;62.60
44851;DHT22;30583;48.714;9.386;2023-03-01T03:28:06;2.40;62.60
44851;DHT22;30583;48.714;9.386;2023-03-01T03:30:37;2.30;63.00
44851;DHT22;30583;48.714;9.386;2023-03-01T03:33:06;2.40;62.70
44851;DHT22;30583;48.714;9.386;2023-03-01T03:35:41;2.50;62.70
44851;DHT22;30583;48.714;9.386;2023-03-01T03:38:10;2.40;62.80
44851;DHT22;30583;48.714;9.386;2023-03-01T03:40:43;2.40;62.90
44851;DHT22;30583;48.714;9.386;2023-03-01T03:43:11;2.40;62.90
44851;DHT22;30583;48.714;9.386;2023-03-01T03:45:37;2.60;62.30
44851;DHT22;30583;48.714;9.386;2023-03-01T03:48:04;2.50;62.20
44851;DHT22;30583;48.714;9.386;2023-03-01T03:50:30;2.60;62.20
44851;DHT22;30583;48.714;9.386;2023-03-01T03:52:56;2.60;62.40
44851;DHT22;30583;48.714;9.386;2023-03-01T03:55:22;2.40;62.50
44851;DHT22;30583;48.714;9.386;2023-03-01T03:57:48;2.50;62.30
44851;DHT22;30583;48.714;9.386;2023-03-01T04:00:18;2.50;62.80
44851;DHT22;30583;48.714;9.386;2023-03-01T04:02:45;2.40;62.90
44851;DHT22;30583;48.714;9.386;2023-03-01T04:05:13;2.70;62.50
44851;DHT22;30583;48.714;9.386;2023-03-01T04:07:40;2.80;61.80
44851;DHT22;30583;48.714;9.386;2023-03-01T04:10:10;2.70;62.10
44851;DHT22;30583;48.714;9.386;2023-03-01T04:12:36;2.80;61.90
44851;DHT22;30583;48.714;9.386;2023-03-01T04:15:03;2.70;61.80
44851;DHT22;30583;48.714;9.386;2023-03-01T04:17:46;2.40;62.70
44851;DHT22;30583;48.714;9.386;2023-03-01T04:20:17;2.90;61.40
44851;DHT22;30583;48.714;9.386;2023-03-01T04:22:43;2.60;61.40
44851;DHT22;30583;48.714;9.386;2023-03-01T04:25:12;2.60;62.00
44851;DHT22;30583;48.714;9.386;2023-03-01T04:27:40;2.60;62.70
44851;DHT22;30583;48.714;9.386;2023-03-01T04:30:06;2.70;61.90
44851;DHT22;30583;48.714;9.386;2023-03-01T04:32:32;2.90;61.40
44851;DHT22;30583;48.714;9.386;2023-03-01T04:34:58;2.80;61.70
44851;DHT22;30583;48.714;9.386;2023-03-01T04:37:23;2.90;61.50
44851;DHT22;30583;48.714;9.386;2023-03-01T04:39:49;2.90;61.60
44851;DHT22;30583;48.714;9.386;2023-03-01T04:42:15;2.80;61.60
44851;DHT22;30583;48.714;9.386;2023-03-01T04:44:42;2.70;62.00
44851;DHT22;30583;48.714;9.386;2023-03-01T04:47:08;2.90;61.50
44851;DHT22;30583;48.714;9.386;2023-03-01T04:49:33;2.90;61.50
44851;DHT22;30583;48.714;9.386;2023-03-01T04:51:59;2.70;61.80
44851;DHT22;30583;48.714;9.386;2023-03-01T04:54:28;2.80;61.90
44851;DHT22;30583;48.714;9.386;2023-03-01T04:56:54;2.90;61.60
44851;DHT22;30583;48.714;9.386;2023-03-01T04:59:19;2.80;62.10
44851;DHT22;30583;48.714;9.386;2023-03-01T05:01:51;2.80;61.90
44851;DHT22;30583;48.714;9.386;2023-03-01T05:04:17;2.80;61.90
44851;DHT22;30583;48.714;9.386;2023-03-01T05:06:42;2.70;62.40
44851;DHT22;30583;48.714;9.386;2023-03-01T05:09:08;2.60;62.80
44851;DHT22;30583;48.714;9.386;2023-03-01T05:11:34;2.70;62.30
44851;DHT22;30583;48.714;9.386;2023-03-01T05:14:10;2.60;62.20
44851;DHT22;30583;48.714;9.386;2023-03-01T05:16:36;2.50;62.80
44851;DHT22;30583;48.714;9.386;2023-03-01T05:19:03;2.60;63.00
44851;DHT22;30583;48.714;9.386;2023-03-01T05:21:37;2.80;62.10
44851;DHT22;30583;48.714;9.386;2023-03-01T05:24:23;2.60;62.20
44851;DHT22;30583;48.714;9.386;2023-03-01T05:26:49;2.70;62.40
44851;DHT22;30583;48.714;9.386;2023-03-01T05:29:17;2.70;62.20
44851;DHT22;30583;48.714;9.386;2023-03-01T05:31:43;2.80;62.10
44851;DHT22;30583;48.714;9.386;2023-03-01T05:34:09;2.70;62.10
44851;DHT22;30583;48.714;9.386;2023-03-01T05:36:34;3.00;61.80
44851;DHT22;30583;48.714;9.386;2023-03-01T05:39:00;3.00;61.30
44851;DHT22;30583;48.714;9.386;2023-03-01T05:41:26;2.90;61.70
44851;DHT22;30583;48.714;9.386;2023-03-01T05:43:51;3.00;61.60
44851;DHT22;30583;48.714;9.386;2023-03-01T05:46:17;2.80;61.70
44851;DHT22;30583;48.714;9.386;2023-03-01T05:48:42;2.80;62.20
44851;DHT22;30583;48.714;9.386;2023-03-01T05:51:08;2.90;61.40
44851;DHT22;30583;48.714;9.386;2023-03-01T05:53:34;2.90;61.40
44851;DHT22;30583;48.714;9.386;2023-03-01T05:56:03;2.90;61.90
44851;DHT22;30583;48.714;9.386;2023-03-01T05:58:29;3.00;61.50
44851;DHT22;30583;48.714;9.386;2023-03-01T06:00:54;2.90;61.00
44851;DHT22;30583;48.714;9.386;2023-03-01T06:03:20;2.70;62.00
44851;DHT22;30583;48.714;9.386;2023-03-01T06:05:45;2.90;61.90
44851;DHT22;30583;48.714;9.386;2023-03-01T06:08:11;2.80;61.90
44851;DHT22;30583;48.714;9.386;2023-03-01T06:10:37;2.60;62.20
44851;DHT22;30583;48.714;9.386;2023-03-01T06:13:03;2.70;62.30
44851;DHT22;30583;48.714;9.386;2023-03-01T06:15:29;2.90;61.80
44851;DHT22;30583;48.714;9.386;2023-03-01T06:17:55;3.10;66.40
44851;DHT22;30583;48.714;9.386;2023-03-01T06:20:24;3.20;63.40
44851;DHT22;30583;48.714;9.386;2023-03-01T06:22:50;3.00;62.40
44851;DHT22;30583;48.714;9.386;2023-03-01T06:25:18;3.20;62.70
44851;DHT22;30583;48.714;9.386;2023-03-01T06:27:44;3.40;61.50
44851;DHT22;30583;48.714;9.386;2023-03-01T06:30:12;3.20;61.60
44851;DHT22;30583;48.714;9.386;2023-03-01T06:32:39;3.30;60.90
44851;DHT22;30583;48.714;9.386;2023-03-01T06:35:07;3.00;61.70
44851;DHT22;30583;48.714;9.386;2023-03-01T06:37:33;3.00;61.50
44851;DHT22;30583;48.714;9.386;2023-03-01T06:40:01;2.80;61.70
44851;DHT22;30583;48.714;9.386;2023-03-01T06:42:32;2.70;62.20
44851;DHT22;30583;48.714;9.386;2023-03-01T06:44:57;2.50;62.80
44851;DHT22;30583;48.714;9.386;2023-03-01T06:47:23;2.40;63.10
44851;DHT22;30583;48.714;9.386;2023-03-01T06:49:48;2.40;63.20
44851;DHT22;30583;48.714;9.386;2023-03-01T06:52:14;2.60;62.60
44851;DHT22;30583;48.714;9.386;2023-03-01T06:54:39;2.50;62.70
44851;DHT22;30583;48.714;9.386;2023-03-01T06:57:05;2.70;62.00
44851;DHT22;30583;48.714;9.386;2023-03-01T06:59:31;2.30;62.90
44851;DHT22;30583;48.714;9.386;2023-03-01T07:01:56;2.60;62.50
44851;DHT22;30583;48.714;9.386;2023-03-01T07:04:22;2.60;62.00
44851;DHT22;30583;48.714;9.386;2023-03-01T07:06:47;2.80;61.80
44851;DHT22;30583;48.714;9.386;2023-03-01T07:09:19;2.80;61.70
44851;DHT22;30583;48.714;9.386;2023-03-01T07:11:47;2.70;62.10
44851;DHT22;30583;48.714;9.386;2023-03-01T07:14:12;2.50;62.60
44851;DHT22;30583;48.714;9.386;2023-03-01T07:16:38;2.70;62.10
44851;DHT22;30583;48.714;9.386;2023-03-01T07:19:04;2.80;61.80
44851;DHT22;30583;48.714;9.386;2023-03-01T07:21:31;3.00;61.40
44851;DHT22;30583;48.714;9.386;2023-03-01T07:23:56;3.10;60.90
44851;DHT22;30583;48.714;9.386;2023-03-01T07:26:22;2.90;61.20
44851;DHT22;30583;48.714;9.386;2023-03-01T07:28:48;2.90;61.50
44851;DHT22;30583;48.714;9.386;2023-03-01T07:31:14;2.90;61.20
44851;DHT22;30583;48.714;9.386;2023-03-01T07:33:39;3.00;61.20
44851;DHT22;30583;48.714;9.386;2023-03-01T07:36:05;2.90;61.60
44851;DHT22;30583;48.714;9.386;2023-03-01T07:38:32;3.20;61.00
44851;DHT22;30583;48.714;9.386;2023-03-01T07:41:01;3.10;61.00
44851;DHT22;30583;48.714;9.386;2023-03-01T07:43:28;3.20;60.80
44851;DHT22;30583;48.714;9.386;2023-03-01T07:45:54;3.10;60.80
44851;DHT22;30583;48.714;9.386;2023-03-01T07:48:20;3.10;60.90
44851;DHT22;30583;48.714;9.386;2023-03-01T07:50:45;3.00;61.30
44851;DHT22;30583;48.714;9.386;2023-03-01T07:53:11;3.10;61.10
44851;DHT22;30583;48.714;9.386;2023-03-01T07:55:37;2.90;61.40
44851;DHT22;30583;48.714;9.386;2023-03-01T07:58:03;2.90;61.30
44851;DHT22;30583;48.714;9.386;2023-03-01T08:00:28;2.90;61.60
44851;DHT22;30583;48.714;9.386;2023-03-01T08:02:54;3.00;61.00
44851;DHT22;30583;48.714;9.386;2023-03-01T08:05:19;3.20;60.80
44851;DHT22;30583;48.714;9.386;2023-03-01T08:07:47;3.50;60.10
44851;DHT22;30583;48.714;9.386;2023-03-01T08:10:13;3.20;60.40
44851;DHT22;30583;48.714;9.386;2023-03-01T08:12:38;3.30;60.00
44851;DHT22;30583;48.714;9.386;2023-03-01T08:15:04;3.30;60.00
44851;DHT22;30583;48.714;9.386;2023-03-01T08:17:30;3.50;59.70
44851;DHT22;30583;48.714;9.386;2023-03-01T08:19:55;3.40;60.30
44851;DHT22;30583;48.714;9.386;2023-03-01T08:22:21;3.70;59.50
44851;DHT22;30583;48.714;9.386;2023-03-01T08:24:46;3.50;59.20
44851;DHT22;30583;48.714;9.386;2023-03-01T08:27:12;3.50;59.10
44851;DHT22;30583;48.714;9.386;2023-03-01T08:29:38;3.70;58.80
44851;DHT22;30583;48.714;9.386;2023-03-01T08:32:04;3.60;58.60
44851;DHT22;30583;48.714;9.386;2023-03-01T08:34:29;3.80;58.50
44851;DHT22;30583;48.714;9.386;2023-03-01T08:36:56;3.80;57.80
44851;DHT22;30583;48.714;9.386;2023-03-01T08:39:22;3.90;57.90
44851;DHT22;30583;48.714;9.386;2023-03-01T08:41:48;3.60;58.40
44851;DHT22;30583;48.714;9.386;2023-03-01T08:44:15;3.50;58.30
44851;DHT22;30583;48.714;9.386;2023-03-01T08:46:42;3.80;57.90
44851;DHT22;30583;48.714;9.386;2023-03-01T08:49:14;3.90;57.90
44851;DHT22;30583;48.714;9.386;2023-03-01T08:51:40;3.90;57.20
44851;DHT22;30583;48.714;9.386;2023-03-01T08:54:09;3.70;58.30
44851;DHT22;30583;48.714;9.386;2023-03-01T08:56:36;3.70;57.50
44851;DHT22;30583;48.714;9.386;2023-03-01T08:59:02;3.80;57.50
44851;DHT22;30583;48.714;9.386;2023-03-01T09:01:28;4.10;57.40
44851;DHT22;30583;48.714;9.386;2023-03-01T09:03:53;4.30;56.90
44851;DHT22;30583;48.714;9.386;2023-03-01T09:06:19;4.10;56.60
44851;DHT22;30583;48.714;9.386;2023-03-01T09:08:49;4.20;56.70
44851;DHT22;30583;48.714;9.386;2023-03-01T09:11:19;4.00;56.90
44851;DHT22;30583;48.714;9.386;2023-03-01T09:13:47;4.50;58.10
44851;DHT22;30583;48.714;9.386;2023-03-01T09:16:14;4.70;57.80
44851;DHT22;30583;48.714;9.386;2023-03-01T09:18:40;7.40;58.80
44851;DHT22;30583;48.714;9.386;2023-03-01T09:21:09;8.50;64.20
44851;DHT22;30583;48.714;9.386;2023-03-01T09:23:36;10.80;54.50
44851;DHT22;30583;48.714;9.386;2023-03-01T09:26:02;10.50;51.10
44851;DHT22;30583;48.714;9.386;2023-03-01T09:28:28;9.50;52.60
44851;DHT22;30583;48.714;9.386;2023-03-01T09:30:53;10.50;49.60
44851;DHT22;30583;48.714;9.386;2023-03-01T09:33:22;9.20;50.70
44851;DHT22;30583;48.714;9.386;2023-03-01T09:35:48;9.70;47.10
44851;DHT22;30583;48.714;9.386;2023-03-01T09:38:13;11.70;46.90
44851;DHT22;30583;48.714;9.386;2023-03-01T09:40:43;11.60;43.80
44851;DHT22;30583;48.714;9.386;2023-03-01T09:43:24;10.30;43.10
44851;DHT22;30583;48.714;9.386;2023-03-01T09:45:53;9.50;43.50
44851;DHT22;30583;48.714;9.386;2023-03-01T09:48:22;10.30;45.30
44851;DHT22;30583;48.714;9.386;2023-03-01T09:50:49;11.30;46.60
44851;DHT22;30583;48.714;9.386;2023-03-01T09:53:18;9.60;41.20
44851;DHT22;30583;48.714;9.386;2023-03-01T09:56:04;8.10;47.60
44851;DHT22;30583;48.714;9.386;2023-03-01T09:58:47;7.90;48.10
44851;DHT22;30583;48.714;9.386;2023-03-01T10:03:47;11.80;44.20
44851;DHT22;30583;48.714;9.386;2023-03-01T10:06:20;12.20;41.00
44851;DHT22;30583;48.714;9.386;2023-03-01T10:09:06;11.40;41.50
44851;DHT22;30583;48.714;9.386;2023-03-01T10:11:37;8.60;43.10
44851;DHT22;30583;48.714;9.386;2023-03-01T10:14:15;8.50;48.70
44851;DHT22;30583;48.714;9.386;2023-03-01T10:17:03;10.10;45.30
44851;DHT22;30583;48.714;9.386;2023-03-01T10:19:31;11.80;41.70
44851;DHT22;30583;48.714;9.386;2023-03-01T10:22:25;11.80;38.80
44851;DHT22;30583;48.714;9.386;2023-03-01T10:24:51;10.50;41.20
44851;DHT22;30583;48.714;9.386;2023-03-01T10:27:23;9.10;44.10
44851;DHT22;30583;48.714;9.386;2023-03-01T10:32:22;10.30;43.50
44851;DHT22;30583;48.714;9.386;2023-03-01T10:34:47;8.50;44.10
44851;DHT22;30583;48.714;9.386;2023-03-01T10:37:20;9.20;43.70
44851;DHT22;30583;48.714;9.386;2023-03-01T10:40:00;8.70;46.30
44851;DHT22;30583;48.714;9.386;2023-03-01T10:42:35;9.60;43.20
44851;DHT22;30583;48.714;9.386;2023-03-01T10:50:44;10.20;40.80
44851;DHT22;30583;48.714;9.386;2023-03-01T10:56:06;11.10;41.50
44851;DHT22;30583;48.714;9.386;2023-03-01T10:58:33;11.00;40.90
44851;DHT22;30583;48.714;9.386;2023-03-01T11:01:03;12.80;41.30
44851;DHT22;30583;48.714;9.386;2023-03-01T11:03:37;10.50;40.60
44851;DHT22;30583;48.714;9.386;2023-03-01T11:06:22;10.70;41.20
44851;DHT22;30583;48.714;9.386;2023-03-01T11:08:49;9.20;42.10
44851;DHT22;30583;48.714;9.386;2023-03-01T11:11:23;9.60;42.80
44851;DHT22;30583;48.714;9.386;2023-03-01T11:16:37;9.30;43.00
44851;DHT22;30583;48.714;9.386;2023-03-01T11:24:13;10.20;41.50
44851;DHT22;30583;48.714;9.386;2023-03-01T11:26:42;10.40;41.60
44851;DHT22;30583;48.714;9.386;2023-03-01T11:29:27;11.70;40.10
44851;DHT22;30583;48.714;9.386;2023-03-01T11:31:57;12.20;38.60
44851;DHT22;30583;48.714;9.386;2023-03-01T11:35:08;11.60;38.90
44851;DHT22;30583;48.714;9.386;2023-03-01T11:37:41;10.50;41.40
44851;DHT22;30583;48.714;9.386;2023-03-01T11:42:53;12.20;39.10
44851;DHT22;30583;48.714;9.386;2023-03-01T11:45:23;12.80;37.90
44851;DHT22;30583;48.714;9.386;2023-03-01T11:48:25;13.20;37.40
44851;DHT22;30583;48.714;9.386;2023-03-01T11:50:50;12.90;37.50
44851;DHT22;30583;48.714;9.386;2023-03-01T11:53:33;13.00;37.20
44851;DHT22;30583;48.714;9.386;2023-03-01T11:59:07;11.70;37.80
44851;DHT22;30583;48.714;9.386;2023-03-01T12:04:49;13.20;36.90
44851;DHT22;30583;48.714;9.386;2023-03-01T12:07:34;13.10;36.20
44851;DHT22;30583;48.714;9.386;2023-03-01T12:10:26;12.30;38.70
44851;DHT22;30583;48.714;9.386;2023-03-01T12:16:06;11.80;38.50
44851;DHT22;30583;48.714;9.386;2023-03-01T12:18:57;11.90;38.80
44851;DHT22;30583;48.714;9.386;2023-03-01T12:22:17;12.40;38.40
44851;DHT22;30583;48.714;9.386;2023-03-01T12:38:37;13.20;36.80
44851;DHT22;30583;48.714;9.386;2023-03-01T12:41:11;12.90;36.90
44851;DHT22;30583;48.714;9.386;2023-03-01T12:43:51;11.30;40.00
44851;DHT22;30583;48.714;9.386;2023-03-01T12:49:23;12.70;37.00
44851;DHT22;30583;48.714;9.386;2023-03-01T12:52:02;12.90;38.30
44851;DHT22;30583;48.714;9.386;2023-03-01T12:54:35;12.80;37.60
44851;DHT22;30583;48.714;9.386;2023-03-01T12:57:30;13.30;37.00
44851;DHT22;30583;48.714;9.386;2023-03-01T13:02:45;13.60;35.90
44851;DHT22;30583;48.714;9.386;2023-03-01T13:08:01;12.90;37.80
44851;DHT22;30583;48.714;9.386;2023-03-01T13:10:43;13.40;36.90
44851;DHT22;30583;48.714;9.386;2023-03-01T13:13:18;12.90;37.10
44851;DHT22;30583;48.714;9.386;2023-03-01T13:15:44;13.20;37.90
44851;DHT22;30583;48.714;9.386;2023-03-01T13:26:07;13.70;37.20
44851;DHT22;30583;48.714;9.386;2023-03-01T13:31:06;12.90;37.10
44851;DHT22;30583;48.714;9.386;2023-03-01T13:36:00;13.20;37.80
44851;DHT22;30583;48.714;9.386;2023-03-01T13:38:47;14.00;36.60
44851;DHT22;30583;48.714;9.386;2023-03-01T13:41:47;12.90;37.70
44851;DHT22;30583;48.714;9.386;2023-03-01T13:54:54;12.30;38.20
44851;DHT22;30583;48.714;9.386;2023-03-01T13:57:24;12.40;37.80
44851;DHT22;30583;48.714;9.386;2023-03-01T13:59:51;12.90;37.80
44851;DHT22;30583;48.714;9.386;2023-03-01T14:02:17;13.30;36.40
44851;DHT22;30583;48.714;9.386;2023-03-01T14:04:42;13.00;37.90
44851;DHT22;30583;48.714;9.386;2023-03-01T14:07:27;13.10;36.50
44851;DHT22;30583;48.714;9.386;2023-03-01T14:09:59;13.00;38.00
44851;DHT22;30583;48.714;9.386;2023-03-01T14:12:45;13.90;36.80
44851;DHT22;30583;48.714;9.386;2023-03-01T14:15:33;14.10;35.80
44851;DHT22;30583;48.714;9.386;2023-03-01T14:18:30;14.50;34.40
44851;DHT22;30583;48.714;9.386;2023-03-01T14:20:59;12.00;37.90
44851;DHT22;30583;48.714;9.386;2023-03-01T14:23:24;13.40;35.90
44851;DHT22;30583;48.714;9.386;2023-03-01T14:25:54;12.80;36.60
44851;DHT22;30583;48.714;9.386;2023-03-01T14:28:28;12.20;37.80
44851;DHT22;30583;48.714;9.386;2023-03-01T14:30:55;13.40;37.30
44851;DHT22;30583;48.714;9.386;2023-03-01T14:33:29;12.90;37.10
44851;DHT22;30583;48.714;9.386;2023-03-01T14:36:08;12.10;38.90
44851;DHT22;30583;48.714;9.386;2023-03-01T14:38:46;13.00;37.50
44851;DHT22;30583;48.714;9.386;2023-03-01T14:41:23;12.70;37.80
44851;DHT22;30583;48.714;9.386;2023-03-01T14:43:55;13.20;36.30
44851;DHT22;30583;48.714;9.386;2023-03-01T14:46:30;12.40;38.10
44851;DHT22;30583;48.714;9.386;2023-03-01T14:49:03;12.40;38.90
44851;DHT22;30583;48.714;9.386;2023-03-01T14:54:29;12.70;38.70
44851;DHT22;30583;48.714;9.386;2023-03-01T14:57:00;12.10;38.80
44851;DHT22;30583;48.714;9.386;2023-03-01T14:59:29;12.10;39.80
44851;DHT22;30583;48.714;9.386;2023-03-01T15:01:57;12.70;38.00
44851;DHT22;30583;48.714;9.386;2023-03-01T15:04:23;14.20;42.00
44851;DHT22;30583;48.714;9.386;2023-03-01T15:06:54;15.40;41.10
44851;DHT22;30583;48.714;9.386;2023-03-01T15:09:21;16.00;42.10
44851;DHT22;30583;48.714;9.386;2023-03-01T15:11:47;16.20;37.70
44851;DHT22;30583;48.714;9.386;2023-03-01T15:14:44;16.70;37.10
44851;DHT22;30583;48.714;9.386;2023-03-01T15:20:00;16.10;35.00
44851;DHT22;30583;48.714;9.386;2023-03-01T15:22:28;15.20;36.30
44851;DHT22;30583;48.714;9.386;2023-03-01T15:24:54;14.20;35.00
44851;DHT22;30583;48.714;9.386;2023-03-01T15:27:22;11.90;38.20
44851;DHT22;30583;48.714;9.386;2023-03-01T15:29:52;12.20;38.90
44851;DHT22;30583;48.714;9.386;2023-03-01T15:34:50;12.00;39.70
44851;DHT22;30583;48.714;9.386;2023-03-01T15:37:39;11.40;40.00
44851;DHT22;30583;48.714;9.386;2023-03-01T15:40:29;11.70;39.50
44851;DHT22;30583;48.714;9.386;2023-03-01T15:43:02;11.70;38.90
44851;DHT22;30583;48.714;9.386;2023-03-01T15:45:30;11.90;38.60
44851;DHT22;30583;48.714;9.386;2023-03-01T15:48:02;11.20;39.80
44851;DHT22;30583;48.714;9.386;2023-03-01T15:50:34;12.00;39.60
44851;DHT22;30583;48.714;9.386;2023-03-01T15:53:01;11.40;39.00
44851;DHT22;30583;48.714;9.386;2023-03-01T15:55:31;11.10;41.60
44851;DHT22;30583;48.714;9.386;2023-03-01T15:58:15;11.50;40.10
44851;DHT22;30583;48.714;9.386;2023-03-01T16:00:43;11.20;41.40
44851;DHT22;30583;48.714;9.386;2023-03-01T16:03:11;11.50;39.30
44851;DHT22;30583;48.714;9.386;2023-03-01T16:05:37;11.30;40.70
44851;DHT22;30583;48.714;9.386;2023-03-01T16:08:04;11.90;39.40
44851;DHT22;30583;48.714;9.386;2023-03-01T16:10:31;11.70;39.80
44851;DHT22;30583;48.714;9.386;2023-03-01T16:12:58;11.20;40.30
44851;DHT22;30583;48.714;9.386;2023-03-01T16:15:27;10.70;41.60
44851;DHT22;30583;48.714;9.386;2023-03-01T16:17:53;10.90;41.80
44851;DHT22;30583;48.714;9.386;2023-03-01T16:20:19;11.00;40.70
44851;DHT22;30583;48.714;9.386;2023-03-01T16:22:46;10.80;41.20
44851;DHT22;30583;48.714;9.386;2023-03-01T16:25:16;11.00;41.10
44851;DHT22;30583;48.714;9.386;2023-03-01T16:27:46;11.40;40.40
44851;DHT22;30583;48.714;9.386;2023-03-01T16:30:17;11.50;40.40
44851;DHT22;30583;48.714;9.386;2023-03-01T16:32:45;11.20;41.00
44851;DHT22;30583;48.714;9.386;2023-03-01T16:35:13;11.00;41.60
44851;DHT22;30583;48.714;9.386;2023-03-01T16:37:39;11.00;41.50
44851;DHT22;30583;48.714;9.386;2023-03-01T16:40:07;10.90;41.90
44851;DHT22;30583;48.714;9.386;2023-03-01T16:42:37;10.70;41.80
44851;DHT22;30583;48.714;9.386;2023-03-01T16:45:03;10.70;41.90
44851;DHT22;30583;48.714;9.386;2023-03-01T16:47:29;10.40;42.10
44851;DHT22;30583;48.714;9.386;2023-03-01T16:49:55;10.50;43.60
44851;DHT22;30583;48.714;9.386;2023-03-01T16:52:21;10.50;42.10
44851;DHT22;30583;48.714;9.386;2023-03-01T16:54:47;10.40;42.00
44851;DHT22;30583;48.714;9.386;2023-03-01T16:57:13;10.30;43.70
44851;DHT22;30583;48.714;9.386;2023-03-01T16:59:39;10.20;43.50
44851;DHT22;30583;48.714;9.386;2023-03-01T17:02:06;10.30;42.70
44851;DHT22;30583;48.714;9.386;2023-03-01T17:04:35;10.10;43.70
44851;DHT22;30583;48.714;9.386;2023-03-01T17:07:01;10.00;43.60
44851;DHT22;30583;48.714;9.386;2023-03-01T17:09:26;9.90;43.70
44851;DHT22;30583;48.714;9.386;2023-03-01T17:11:52;9.80;42.90
44851;DHT22;30583;48.714;9.386;2023-03-01T17:14:19;9.60;44.10
44851;DHT22;30583;48.714;9.386;2023-03-01T17:16:45;9.70;43.50
44851;DHT22;30583;48.714;9.386;2023-03-01T17:19:11;9.70;43.30
44851;DHT22;30583;48.714;9.386;2023-03-01T17:21:38;9.50;44.70
44851;DHT22;30583;48.714;9.386;2023-03-01T17:24:04;9.80;44.80
44851;DHT22;30583;48.714;9.386;2023-03-01T17:26:29;9.40;43.70
44851;DHT22;30583;48.714;9.386;2023-03-01T17:28:56;9.30;44.30
44851;DHT22;30583;48.714;9.386;2023-03-01T17:31:23;9.30;44.30
44851;DHT22;30583;48.714;9.386;2023-03-01T17:33:49;9.10;44.40
44851;DHT22;30583;48.714;9.386;2023-03-01T17:36:15;8.70;45.30
44851;DHT22;30583;48.714;9.386;2023-03-01T17:38:41;8.80;45.50